createdAt,value
2018-12-06T00:00:45.925Z,9.61
2018-12-06T00:01:45.900Z,9.73
2018-12-06T00:02:45.874Z,9.70
2018-12-06T00:03:45.848Z,9.63
2018-12-06T00:04:45.822Z,9.60
2018-12-06T00:05:45.797Z,9.58
2018-12-06T00:06:45.771Z,9.53
2018-12-06T00:07:45.746Z,9.67
2018-12-06T00:08:45.720Z,9.63
2018-12-06T00:09:45.694Z,9.61
2018-12-06T00:10:45.669Z,9.45
2018-12-06T00:11:45.644Z,9.49
2018-12-06T00:12:45.618Z,9.45
2018-12-06T00:13:45.592Z,9.46
2018-12-06T00:14:45.567Z,9.34
2018-12-06T00:15:45.542Z,9.34
2018-12-06T00:16:45.516Z,9.42
2018-12-06T00:17:45.491Z,9.40
2018-12-06T00:18:45.465Z,9.40
2018-12-06T00:19:45.441Z,9.39
2018-12-06T00:20:45.414Z,9.35
2018-12-06T00:21:45.390Z,9.49
2018-12-06T00:22:45.364Z,9.43
2018-12-06T00:23:45.339Z,9.56
2018-12-06T00:24:45.312Z,9.56
2018-12-06T00:25:45.287Z,9.64
2018-12-06T00:26:45.262Z,9.57
2018-12-06T00:27:45.238Z,9.67
2018-12-06T00:28:45.211Z,9.56
2018-12-06T00:29:45.186Z,9.60
2018-12-06T00:30:45.160Z,9.63
2018-12-06T00:31:45.135Z,9.61
2018-12-06T00:32:45.109Z,9.63
2018-12-06T00:33:45.084Z,9.68
2018-12-06T00:34:45.059Z,9.75
2018-12-06T00:35:45.034Z,9.70
2018-12-06T00:36:45.008Z,9.66
2018-12-06T00:37:44.982Z,9.73
2018-12-06T00:38:44.957Z,9.73
2018-12-06T00:39:44.932Z,9.71
2018-12-06T00:40:44.906Z,9.73
2018-12-06T00:41:44.880Z,9.75
2018-12-06T00:42:44.855Z,9.66
2018-12-06T00:43:44.830Z,9.67
2018-12-06T00:44:44.807Z,9.71
2018-12-06T00:45:44.779Z,9.68
2018-12-06T00:46:44.754Z,9.76
2018-12-06T00:47:44.728Z,9.82
2018-12-06T00:48:44.702Z,9.83
2018-12-06T00:49:44.678Z,9.78
2018-12-06T00:50:45.404Z,9.75
2018-12-06T00:51:44.629Z,9.70
2018-12-06T00:52:44.602Z,9.67
2018-12-06T00:53:44.576Z,9.71
2018-12-06T00:54:44.551Z,9.70
2018-12-06T00:55:44.528Z,9.67
2018-12-06T00:56:44.500Z,9.71
2018-12-06T00:57:44.474Z,9.71
2018-12-06T00:58:44.449Z,9.75
2018-12-06T00:59:44.426Z,9.70
2018-12-06T01:00:44.401Z,9.81
2018-12-06T01:01:44.373Z,9.76
2018-12-06T01:02:44.347Z,9.82
2018-12-06T01:03:44.325Z,9.76
2018-12-06T01:04:44.296Z,9.83
2018-12-06T01:05:44.271Z,9.86
2018-12-06T01:06:44.247Z,9.79
2018-12-06T01:07:44.223Z,9.79
2018-12-06T01:08:44.194Z,9.83
2018-12-06T01:09:44.169Z,9.78
2018-12-06T01:10:44.145Z,9.81
2018-12-06T01:11:44.119Z,9.68
2018-12-06T01:12:44.093Z,9.70
2018-12-06T01:13:44.067Z,9.71
2018-12-06T01:14:44.043Z,9.67
2018-12-06T01:15:44.021Z,9.73
2018-12-06T01:16:43.992Z,9.75
2018-12-06T01:17:43.967Z,9.71
2018-12-06T01:18:43.942Z,9.68
2018-12-06T01:19:43.917Z,9.61
2018-12-06T01:20:43.890Z,9.52
2018-12-06T01:21:43.866Z,9.57
2018-12-06T01:22:43.840Z,9.73
2018-12-06T01:23:43.815Z,9.66
2018-12-06T01:24:43.789Z,9.71
2018-12-06T01:25:43.765Z,9.64
2018-12-06T01:26:43.740Z,9.68
2018-12-06T01:27:43.714Z,9.71
2018-12-06T01:28:43.689Z,9.71
2018-12-06T01:29:43.664Z,9.67
2018-12-06T01:30:43.641Z,9.73
2018-12-06T01:31:43.617Z,9.63
2018-12-06T01:32:43.590Z,9.50
2018-12-06T01:33:43.563Z,9.58
2018-12-06T01:34:43.543Z,9.60
2018-12-06T01:35:43.514Z,9.60
2018-12-06T01:36:43.488Z,9.61
2018-12-06T01:37:43.461Z,9.58
2018-12-06T01:38:43.437Z,9.60
2018-12-06T01:39:43.414Z,9.57
2018-12-06T01:40:43.387Z,9.56
2018-12-06T01:41:43.362Z,9.61
2018-12-06T01:42:43.340Z,9.60
2018-12-06T01:43:43.311Z,9.63
2018-12-06T01:44:43.289Z,9.67
2018-12-06T01:45:43.262Z,9.57
2018-12-06T01:46:43.236Z,9.58
2018-12-06T01:47:43.212Z,9.61
2018-12-06T01:48:43.184Z,9.57
2018-12-06T01:49:43.160Z,9.58
2018-12-06T01:50:43.135Z,9.57
2018-12-06T01:51:43.109Z,9.57
2018-12-06T01:52:43.084Z,9.52
2018-12-06T01:53:43.058Z,9.58
2018-12-06T01:54:43.034Z,9.57
2018-12-06T01:55:43.008Z,9.49
2018-12-06T01:56:42.983Z,9.45
2018-12-06T01:57:42.959Z,9.43
2018-12-06T01:58:42.932Z,9.45
2018-12-06T01:59:42.907Z,9.58
2018-12-06T02:00:42.881Z,9.56
2018-12-06T02:01:42.857Z,9.52
2018-12-06T02:02:42.831Z,9.43
2018-12-06T02:03:42.807Z,9.57
2018-12-06T02:04:42.780Z,9.53
2018-12-06T02:05:42.755Z,9.60
2018-12-06T02:06:42.731Z,9.63
2018-12-06T02:07:42.706Z,9.63
2018-12-06T02:08:42.679Z,9.67
2018-12-06T02:09:42.654Z,9.73
2018-12-06T02:10:42.629Z,9.63
2018-12-06T02:11:42.604Z,9.63
2018-12-06T02:12:42.578Z,9.71
2018-12-06T02:13:42.553Z,9.61
2018-12-06T02:14:42.527Z,9.66
2018-12-06T02:15:42.508Z,9.68
2018-12-06T02:16:43.855Z,9.67
2018-12-06T02:17:42.451Z,9.64
2018-12-06T02:18:42.426Z,9.57
2018-12-06T02:19:42.401Z,9.66
2018-12-06T02:20:42.375Z,9.73
2018-12-06T02:21:42.350Z,9.75
2018-12-06T02:22:42.324Z,9.71
2018-12-06T02:23:42.299Z,9.79
2018-12-06T02:24:42.273Z,9.81
2018-12-06T02:25:42.248Z,9.81
2018-12-06T02:26:42.223Z,9.68
2018-12-06T02:27:42.198Z,9.75
2018-12-06T02:28:42.171Z,9.70
2018-12-06T02:29:42.146Z,9.71
2018-12-06T02:30:42.122Z,9.68
2018-12-06T02:31:42.096Z,9.68
2018-12-06T02:32:42.078Z,9.68
2018-12-06T02:33:42.045Z,9.81
2018-12-06T02:34:42.019Z,9.75
2018-12-06T02:35:42.002Z,9.85
2018-12-06T02:36:41.968Z,9.82
2018-12-06T02:37:41.943Z,9.85
2018-12-06T02:38:41.919Z,9.82
2018-12-06T02:39:41.892Z,9.76
2018-12-06T02:40:41.867Z,9.81
2018-12-06T02:41:41.842Z,9.82
2018-12-06T02:42:41.825Z,9.79
2018-12-06T02:43:41.790Z,9.85
2018-12-06T02:44:41.764Z,9.81
2018-12-06T02:45:41.741Z,9.85
2018-12-06T02:46:41.715Z,9.83
2018-12-06T02:47:41.691Z,9.81
2018-12-06T02:48:41.664Z,9.66
2018-12-06T02:49:41.640Z,9.68
2018-12-06T02:50:41.615Z,9.86
2018-12-06T02:51:41.588Z,9.89
2018-12-06T02:52:41.561Z,9.93
2018-12-06T02:53:41.537Z,9.93
2018-12-06T02:54:41.512Z,9.89
2018-12-06T02:55:41.487Z,9.93
2018-12-06T02:56:41.460Z,9.82
2018-12-06T02:57:42.187Z,9.82
2018-12-06T02:58:41.417Z,9.93
2018-12-06T02:59:41.385Z,10.07
2018-12-06T03:00:41.359Z,10.07
2018-12-06T03:01:41.336Z,10.04
2018-12-06T03:02:41.318Z,10.07
2018-12-06T03:03:41.283Z,10.12
2018-12-06T03:04:41.257Z,10.14
2018-12-06T03:05:41.233Z,10.12
2018-12-06T03:06:41.206Z,10.25
2018-12-06T03:07:41.181Z,10.18
2018-12-06T03:08:41.155Z,10.17
2018-12-06T03:09:41.130Z,10.28
2018-12-06T03:10:41.104Z,10.17
2018-12-06T03:11:41.080Z,10.21
2018-12-06T03:12:41.055Z,10.17
2018-12-06T03:13:41.028Z,10.22
2018-12-06T03:14:41.002Z,10.24
2018-12-06T03:15:40.977Z,10.25
2018-12-06T03:16:40.952Z,10.24
2018-12-06T03:17:40.925Z,10.21
2018-12-06T03:18:40.902Z,10.15
2018-12-06T03:19:40.874Z,10.19
2018-12-06T03:20:40.848Z,10.15
2018-12-06T03:21:40.823Z,10.10
2018-12-06T03:22:40.797Z,10.07
2018-12-06T03:23:40.774Z,10.15
2018-12-06T03:24:40.749Z,10.00
2018-12-06T03:25:40.720Z,10.01
2018-12-06T03:26:40.695Z,10.10
2018-12-06T03:27:40.670Z,10.03
2018-12-06T03:28:40.643Z,9.94
2018-12-06T03:29:40.622Z,9.96
2018-12-06T03:30:40.593Z,10.06
2018-12-06T03:31:40.568Z,9.99
2018-12-06T03:32:40.541Z,10.04
2018-12-06T03:33:40.517Z,9.91
2018-12-06T03:34:41.245Z,9.97
2018-12-06T03:35:40.465Z,9.93
2018-12-06T03:36:40.449Z,9.94
2018-12-06T03:37:40.416Z,9.89
2018-12-06T03:38:40.388Z,10.03
2018-12-06T03:39:40.362Z,9.94
2018-12-06T03:40:40.335Z,10.01
2018-12-06T03:41:40.310Z,10.01
2018-12-06T03:42:40.286Z,9.99
2018-12-06T03:43:40.268Z,10.09
2018-12-06T03:44:40.233Z,10.01
2018-12-06T03:45:40.208Z,10.07
2018-12-06T03:46:40.181Z,10.10
2018-12-06T03:47:40.156Z,10.10
2018-12-06T03:48:40.130Z,9.96
2018-12-06T03:49:40.107Z,9.93
2018-12-06T03:50:40.080Z,9.94
2018-12-06T03:51:40.059Z,10.00
2018-12-06T03:52:40.027Z,9.91
2018-12-06T03:53:40.001Z,10.03
2018-12-06T03:54:39.980Z,9.96
2018-12-06T03:55:39.950Z,9.85
2018-12-06T03:56:39.928Z,9.94
2018-12-06T03:57:39.899Z,9.97
2018-12-06T03:58:39.885Z,10.00
2018-12-06T03:59:39.847Z,9.88
2018-12-06T04:00:39.821Z,9.88
2018-12-06T04:01:39.801Z,9.94
2018-12-06T04:02:39.770Z,10.00
2018-12-06T04:03:39.745Z,9.93
2018-12-06T04:04:39.718Z,9.83
2018-12-06T04:05:39.691Z,9.94
2018-12-06T04:06:39.666Z,9.83
2018-12-06T04:07:39.641Z,9.86
2018-12-06T04:08:39.615Z,9.86
2018-12-06T04:09:39.589Z,9.85
2018-12-06T04:10:39.564Z,9.75
2018-12-06T04:11:39.547Z,9.79
2018-12-06T04:12:39.515Z,9.81
2018-12-06T04:13:39.486Z,9.86
2018-12-06T04:14:39.460Z,9.85
2018-12-06T04:15:39.435Z,9.73
2018-12-06T04:16:39.409Z,9.82
2018-12-06T04:17:39.383Z,9.81
2018-12-06T04:18:39.359Z,9.83
2018-12-06T04:19:39.334Z,9.85
2018-12-06T04:20:39.306Z,9.81
2018-12-06T04:21:39.280Z,9.73
2018-12-06T04:22:39.255Z,9.82
2018-12-06T04:23:39.230Z,9.85
2018-12-06T04:24:39.204Z,9.81
2018-12-06T04:25:39.178Z,9.82
2018-12-06T04:26:39.154Z,9.79
2018-12-06T04:27:39.133Z,9.79
2018-12-06T04:28:39.100Z,9.75
2018-12-06T04:29:39.076Z,9.85
2018-12-06T04:30:39.050Z,9.79
2018-12-06T04:31:39.024Z,9.83
2018-12-06T04:32:39.000Z,9.83
2018-12-06T04:33:38.974Z,9.86
2018-12-06T04:34:38.949Z,9.91
2018-12-06T04:35:38.924Z,9.76
2018-12-06T04:36:38.896Z,9.83
2018-12-06T04:37:38.872Z,9.83
2018-12-06T04:38:38.845Z,9.86
2018-12-06T04:39:38.820Z,9.83
2018-12-06T04:40:38.794Z,9.76
2018-12-06T04:41:38.769Z,9.82
2018-12-06T04:42:38.743Z,9.83
2018-12-06T04:43:38.718Z,9.81
2018-12-06T04:44:38.695Z,9.83
2018-12-06T04:45:38.666Z,9.83
2018-12-06T04:46:38.643Z,9.86
2018-12-06T04:47:38.616Z,9.89
2018-12-06T04:48:38.589Z,9.89
2018-12-06T04:49:38.566Z,9.81
2018-12-06T04:50:38.539Z,9.86
2018-12-06T04:51:38.516Z,9.83
2018-12-06T04:52:38.489Z,9.85
2018-12-06T04:53:38.463Z,9.81
2018-12-06T04:54:38.438Z,9.76
2018-12-06T04:55:38.413Z,9.76
2018-12-06T04:56:38.392Z,9.91
2018-12-06T04:57:38.361Z,9.94
2018-12-06T04:58:38.339Z,9.96
2018-12-06T04:59:38.316Z,10.01
2018-12-06T05:00:38.285Z,9.97
2018-12-06T05:01:38.260Z,10.01
2018-12-06T05:02:38.234Z,10.22
2018-12-06T05:03:38.207Z,10.28
2018-12-06T05:04:38.182Z,10.28
2018-12-06T05:05:38.157Z,10.22
2018-12-06T05:06:38.138Z,10.28
2018-12-06T05:07:38.107Z,10.22
2018-12-06T05:08:38.090Z,10.18
2018-12-06T05:09:38.056Z,10.24
2018-12-06T05:10:38.030Z,10.26
2018-12-06T05:11:38.006Z,10.32
2018-12-06T05:12:37.979Z,10.17
2018-12-06T05:13:37.959Z,10.15
2018-12-06T05:14:37.937Z,10.12
2018-12-06T05:15:37.903Z,10.09
2018-12-06T05:16:37.878Z,10.07
2018-12-06T05:17:37.852Z,10.06
2018-12-06T05:18:37.828Z,10.17
2018-12-06T05:19:37.802Z,10.09
2018-12-06T05:20:37.776Z,10.22
2018-12-06T05:21:37.751Z,10.03
2018-12-06T05:22:37.727Z,10.10
2018-12-06T05:23:37.700Z,10.09
2018-12-06T05:24:37.674Z,10.10
2018-12-06T05:25:37.649Z,10.03
2018-12-06T05:26:37.627Z,10.00
2018-12-06T05:27:37.599Z,10.04
2018-12-06T05:28:37.574Z,10.04
2018-12-06T05:29:37.551Z,10.09
2018-12-06T05:30:37.522Z,10.01
2018-12-06T05:31:37.497Z,10.09
2018-12-06T05:32:37.473Z,10.19
2018-12-06T05:33:37.447Z,10.19
2018-12-06T05:34:37.424Z,10.18
2018-12-06T05:35:37.396Z,10.14
2018-12-06T05:36:37.377Z,10.09
2018-12-06T05:37:37.346Z,10.09
2018-12-06T05:38:37.320Z,10.15
2018-12-06T05:39:37.296Z,10.12
2018-12-06T05:40:37.269Z,10.17
2018-12-06T05:41:37.244Z,10.06
2018-12-06T05:42:37.219Z,10.10
2018-12-06T05:43:37.193Z,10.22
2018-12-06T05:44:37.167Z,10.19
2018-12-06T05:45:37.142Z,10.15
2018-12-06T05:46:37.115Z,10.10
2018-12-06T05:47:37.093Z,10.18
2018-12-06T05:48:37.066Z,10.15
2018-12-06T05:49:37.039Z,10.17
2018-12-06T05:50:37.015Z,10.07
2018-12-06T05:51:36.993Z,10.06
2018-12-06T05:52:36.965Z,10.01
2018-12-06T05:53:36.939Z,10.10
2018-12-06T05:54:36.914Z,10.10
2018-12-06T05:55:36.889Z,9.97
2018-12-06T05:56:38.367Z,9.97
2018-12-06T05:57:36.841Z,9.97
2018-12-06T05:58:36.812Z,9.99
2018-12-06T05:59:36.787Z,10.09
2018-12-06T06:00:36.761Z,10.03
2018-12-06T06:01:36.736Z,10.03
2018-12-06T06:02:38.962Z,9.97
2018-12-06T06:03:36.685Z,9.97
2018-12-06T06:04:36.660Z,10.01
2018-12-06T06:05:36.634Z,9.93
2018-12-06T06:06:36.609Z,9.91
2018-12-06T06:07:36.583Z,9.99
2018-12-06T06:08:36.556Z,10.00
2018-12-06T06:09:36.538Z,9.96
2018-12-06T06:10:36.505Z,9.91
2018-12-06T06:11:36.481Z,10.01
2018-12-06T06:12:36.455Z,9.97
2018-12-06T06:13:36.430Z,9.91
2018-12-06T06:14:36.404Z,9.91
2018-12-06T06:15:36.384Z,9.93
2018-12-06T06:16:36.353Z,9.89
2018-12-06T06:17:36.328Z,9.89
2018-12-06T06:18:36.304Z,9.86
2018-12-06T06:19:36.279Z,9.97
2018-12-06T06:20:36.251Z,9.91
2018-12-06T06:21:36.225Z,10.01
2018-12-06T06:22:36.203Z,9.94
2018-12-06T06:23:36.176Z,9.93
2018-12-06T06:24:36.150Z,9.96
2018-12-06T06:25:36.126Z,10.01
2018-12-06T06:26:36.099Z,10.10
2018-12-06T06:27:36.076Z,9.97
2018-12-06T06:28:36.049Z,10.10
2018-12-06T06:29:36.024Z,9.99
2018-12-06T06:30:36.001Z,10.00
2018-12-06T06:31:35.973Z,9.96
2018-12-06T06:32:35.947Z,10.06
2018-12-06T06:33:35.921Z,10.12
2018-12-06T06:34:35.897Z,10.04
2018-12-06T06:35:35.872Z,10.07
2018-12-06T06:36:35.849Z,10.21
2018-12-06T06:37:35.820Z,10.25
2018-12-06T06:38:35.798Z,10.37
2018-12-06T06:39:35.772Z,10.34
2018-12-06T06:40:35.745Z,10.47
2018-12-06T06:41:35.720Z,10.36
2018-12-06T06:42:35.695Z,10.36
2018-12-06T06:43:35.669Z,10.40
2018-12-06T06:44:35.644Z,10.40
2018-12-06T06:45:35.620Z,10.40
2018-12-06T06:46:35.598Z,10.53
2018-12-06T06:47:35.570Z,10.40
2018-12-06T06:48:35.544Z,10.51
2018-12-06T06:49:35.520Z,10.51
2018-12-06T06:50:35.495Z,10.36
2018-12-06T06:51:35.470Z,10.53
2018-12-06T06:52:35.444Z,10.42
2018-12-06T06:53:35.420Z,10.51
2018-12-06T06:54:35.399Z,10.47
2018-12-06T06:55:36.121Z,10.42
2018-12-06T06:56:35.344Z,10.37
2018-12-06T06:57:35.320Z,10.36
2018-12-06T06:58:35.295Z,10.40
2018-12-06T06:59:35.270Z,10.34
2018-12-06T07:00:35.245Z,10.36
2018-12-06T07:01:35.220Z,10.52
2018-12-06T07:02:35.195Z,10.47
2018-12-06T07:03:35.170Z,10.44
2018-12-06T07:04:35.145Z,10.37
2018-12-06T07:05:35.121Z,10.43
2018-12-06T07:06:35.096Z,10.55
2018-12-06T07:07:35.071Z,10.53
2018-12-06T07:08:35.049Z,10.51
2018-12-06T07:09:35.021Z,10.52
2018-12-06T07:10:34.999Z,10.43
2018-12-06T07:11:34.973Z,10.40
2018-12-06T07:12:34.949Z,10.53
2018-12-06T07:13:34.922Z,10.51
2018-12-06T07:14:34.896Z,10.52
2018-12-06T07:15:34.872Z,10.47
2018-12-06T07:16:34.847Z,10.51
2018-12-06T07:17:35.573Z,10.43
2018-12-06T07:18:34.797Z,10.53
2018-12-06T07:19:34.774Z,10.65
2018-12-06T07:20:34.747Z,10.63
2018-12-06T07:21:34.723Z,10.68
2018-12-06T07:22:35.448Z,10.74
2018-12-06T07:23:34.676Z,10.63
2018-12-06T07:24:34.647Z,10.71
2018-12-06T07:25:34.624Z,10.73
2018-12-06T07:26:34.652Z,10.63
2018-12-06T07:27:34.573Z,10.62
2018-12-06T07:28:34.551Z,10.60
2018-12-06T07:29:34.523Z,10.65
2018-12-06T07:30:34.498Z,10.76
2018-12-06T07:31:34.474Z,10.77
2018-12-06T07:32:34.448Z,10.76
2018-12-06T07:33:34.424Z,10.80
2018-12-06T07:34:34.402Z,10.84
2018-12-06T07:35:34.374Z,10.84
2018-12-06T07:36:34.349Z,10.78
2018-12-06T07:37:34.323Z,10.80
2018-12-06T07:38:34.299Z,10.77
2018-12-06T07:39:34.275Z,10.76
2018-12-06T07:40:34.249Z,10.80
2018-12-06T07:41:34.222Z,10.77
2018-12-06T07:42:34.199Z,10.70
2018-12-06T07:43:34.175Z,10.71
2018-12-06T07:44:34.150Z,10.73
2018-12-06T07:45:34.125Z,10.76
2018-12-06T07:46:34.101Z,10.73
2018-12-06T07:47:34.078Z,10.63
2018-12-06T07:48:34.049Z,10.70
2018-12-06T07:49:34.025Z,10.68
2018-12-06T07:50:34.002Z,10.63
2018-12-06T07:51:33.977Z,10.74
2018-12-06T07:52:33.950Z,10.65
2018-12-06T07:53:33.925Z,10.59
2018-12-06T07:54:33.901Z,10.62
2018-12-06T07:55:33.875Z,10.74
2018-12-06T07:56:33.850Z,10.53
2018-12-06T07:57:33.826Z,10.59
2018-12-06T07:58:33.801Z,10.65
2018-12-06T07:59:33.776Z,10.66
2018-12-06T08:00:33.751Z,10.58
2018-12-06T08:01:33.730Z,10.60
2018-12-06T08:02:33.702Z,10.65
2018-12-06T08:03:33.678Z,10.66
2018-12-06T08:04:33.652Z,10.66
2018-12-06T08:05:33.628Z,10.62
2018-12-06T08:06:33.603Z,10.53
2018-12-06T08:07:33.578Z,10.65
2018-12-06T08:08:33.553Z,10.70
2018-12-06T08:09:33.529Z,10.68
2018-12-06T08:10:33.504Z,10.58
2018-12-06T08:11:33.480Z,10.51
2018-12-06T08:12:33.455Z,10.46
2018-12-06T08:13:33.433Z,10.56
2018-12-06T08:14:33.407Z,10.51
2018-12-06T08:15:33.382Z,10.47
2018-12-06T08:16:33.355Z,10.51
2018-12-06T08:17:33.331Z,10.42
2018-12-06T08:18:33.311Z,10.53
2018-12-06T08:19:33.283Z,10.53
2018-12-06T08:20:33.257Z,10.56
2018-12-06T08:21:33.233Z,10.62
2018-12-06T08:22:33.209Z,10.62
2018-12-06T08:23:33.184Z,10.63
2018-12-06T08:24:33.159Z,10.74
2018-12-06T08:25:33.133Z,10.66
2018-12-06T08:26:33.112Z,10.66
2018-12-06T08:27:33.087Z,10.66
2018-12-06T08:28:33.060Z,10.65
2018-12-06T08:29:33.036Z,10.70
2018-12-06T08:30:33.013Z,10.60
2018-12-06T08:31:32.987Z,10.60
2018-12-06T08:32:32.962Z,10.60
2018-12-06T08:33:32.938Z,10.55
2018-12-06T08:34:32.914Z,10.63
2018-12-06T08:35:32.892Z,10.65
2018-12-06T08:36:32.864Z,10.63
2018-12-06T08:37:32.840Z,10.71
2018-12-06T08:38:32.816Z,10.74
2018-12-06T08:39:32.792Z,10.83
2018-12-06T08:40:32.767Z,10.89
2018-12-06T08:41:32.743Z,10.83
2018-12-06T08:42:32.717Z,10.70
2018-12-06T08:43:32.693Z,10.81
2018-12-06T08:44:32.668Z,10.91
2018-12-06T08:45:32.644Z,11.03
2018-12-06T08:46:32.620Z,11.03
2018-12-06T08:47:32.600Z,10.99
2018-12-06T08:48:33.321Z,10.96
2018-12-06T08:49:32.546Z,11.10
2018-12-06T08:50:32.522Z,11.02
2018-12-06T08:51:32.567Z,11.01
2018-12-06T08:52:32.473Z,10.94
2018-12-06T08:53:32.449Z,10.89
2018-12-06T08:54:32.424Z,10.83
2018-12-06T08:55:32.401Z,10.94
2018-12-06T08:56:32.378Z,10.94
2018-12-06T08:57:32.352Z,10.84
2018-12-06T08:58:32.331Z,10.92
2018-12-06T08:59:32.307Z,10.95
2018-12-06T09:00:32.283Z,10.99
2018-12-06T09:01:32.256Z,10.99
2018-12-06T09:02:32.233Z,11.01
2018-12-06T09:03:32.208Z,10.96
2018-12-06T09:04:32.184Z,10.94
2018-12-06T09:05:32.158Z,10.89
2018-12-06T09:06:32.134Z,10.89
2018-12-06T09:07:32.110Z,10.88
2018-12-06T09:08:32.085Z,10.88
2018-12-06T09:09:32.062Z,10.96
2018-12-06T09:10:32.040Z,10.89
2018-12-06T09:11:32.013Z,10.96
2018-12-06T09:12:31.988Z,10.91
2018-12-06T09:13:31.964Z,10.91
2018-12-06T09:14:33.441Z,11.03
2018-12-06T09:15:31.916Z,11.01
2018-12-06T09:16:31.890Z,11.01
2018-12-06T09:17:31.866Z,10.98
2018-12-06T09:18:31.893Z,10.94
2018-12-06T09:19:31.819Z,11.01
2018-12-06T09:20:31.793Z,11.01
2018-12-06T09:21:31.768Z,11.07
2018-12-06T09:22:31.745Z,11.07
2018-12-06T09:23:31.720Z,11.06
2018-12-06T09:24:31.695Z,10.98
2018-12-06T09:25:31.673Z,11.13
2018-12-06T09:26:31.648Z,11.11
2018-12-06T09:27:31.622Z,11.02
2018-12-06T09:28:31.598Z,11.09
2018-12-06T09:29:31.574Z,11.17
2018-12-06T09:30:31.550Z,11.14
2018-12-06T09:31:31.526Z,11.09
2018-12-06T09:32:31.501Z,11.10
2018-12-06T09:33:31.477Z,11.03
2018-12-06T09:34:31.453Z,11.11
2018-12-06T09:35:31.429Z,11.21
2018-12-06T09:36:31.406Z,11.31
2018-12-06T09:37:31.380Z,11.24
2018-12-06T09:38:31.356Z,11.34
2018-12-06T09:39:31.332Z,11.43
2018-12-06T09:40:31.307Z,11.44
2018-12-06T09:41:31.284Z,11.39
2018-12-06T09:42:32.013Z,11.41
2018-12-06T09:43:31.235Z,11.35
2018-12-06T09:44:31.211Z,11.27
2018-12-06T09:45:31.187Z,11.36
2018-12-06T09:46:31.164Z,11.36
2018-12-06T09:47:31.140Z,11.32
2018-12-06T09:48:31.115Z,11.29
2018-12-06T09:49:32.822Z,11.29
2018-12-06T09:50:31.068Z,11.28
2018-12-06T09:51:31.104Z,11.21
2018-12-06T09:52:31.020Z,11.21
2018-12-06T09:53:30.998Z,11.16
2018-12-06T09:54:30.972Z,11.16
2018-12-06T09:55:30.948Z,11.20
2018-12-06T09:56:30.923Z,11.29
2018-12-06T09:57:30.901Z,11.25
2018-12-06T09:58:30.874Z,11.27
2018-12-06T09:59:30.852Z,11.39
2018-12-06T10:00:30.828Z,11.43
2018-12-06T10:01:30.804Z,11.49
2018-12-06T10:02:30.780Z,11.44
2018-12-06T10:03:30.757Z,11.43
2018-12-06T10:04:30.732Z,11.47
2018-12-06T10:05:30.709Z,11.36
2018-12-06T10:06:30.685Z,11.47
2018-12-06T10:07:30.661Z,11.52
2018-12-06T10:08:30.637Z,11.46
2018-12-06T10:09:30.700Z,11.61
2018-12-06T10:10:30.589Z,11.61
2018-12-06T10:11:30.566Z,11.59
2018-12-06T10:12:30.542Z,11.50
2018-12-06T10:13:33.521Z,11.57
2018-12-06T10:14:30.503Z,11.56
2018-12-06T10:15:30.478Z,11.56
2018-12-06T10:16:30.447Z,11.57
2018-12-06T10:17:30.424Z,11.54
2018-12-06T10:18:30.399Z,11.50
2018-12-06T10:19:31.129Z,11.54
2018-12-06T10:20:30.355Z,11.49
2018-12-06T10:21:30.328Z,11.56
2018-12-06T10:22:30.304Z,11.59
2018-12-06T10:23:30.286Z,11.54
2018-12-06T10:24:30.256Z,11.57
2018-12-06T10:25:30.233Z,11.57
2018-12-06T10:26:30.212Z,11.62
2018-12-06T10:27:30.187Z,11.61
2018-12-06T10:28:30.161Z,11.64
2018-12-06T10:29:30.138Z,11.59
2018-12-06T10:30:31.617Z,11.61
2018-12-06T10:31:30.091Z,11.57
2018-12-06T10:32:30.068Z,11.53
2018-12-06T10:33:30.044Z,11.52
2018-12-06T10:34:30.019Z,11.52
2018-12-06T10:35:29.995Z,11.44
2018-12-06T10:36:29.971Z,11.38
2018-12-06T10:37:29.946Z,11.35
2018-12-06T10:38:29.924Z,11.50
2018-12-06T10:39:29.900Z,11.47
2018-12-06T10:40:29.877Z,11.62
2018-12-06T10:41:29.853Z,11.67
2018-12-06T10:42:29.830Z,11.70
2018-12-06T10:43:29.807Z,11.71
2018-12-06T10:44:29.780Z,11.72
2018-12-06T10:45:29.760Z,11.68
2018-12-06T10:46:29.734Z,11.83
2018-12-06T10:47:31.961Z,11.71
2018-12-06T10:48:29.685Z,11.80
2018-12-06T10:49:29.665Z,11.82
2018-12-06T10:50:29.639Z,11.80
2018-12-06T10:51:29.616Z,11.90
2018-12-06T10:52:29.594Z,11.80
2018-12-06T10:53:29.567Z,11.78
2018-12-06T10:54:29.545Z,11.83
2018-12-06T10:55:29.521Z,11.87
2018-12-06T10:56:29.496Z,11.80
2018-12-06T10:57:29.473Z,11.65
2018-12-06T10:58:29.448Z,11.65
2018-12-06T10:59:29.425Z,11.75
2018-12-06T11:00:29.401Z,11.75
2018-12-06T11:01:29.378Z,11.67
2018-12-06T11:02:29.354Z,11.65
2018-12-06T11:03:29.331Z,11.65
2018-12-06T11:04:30.058Z,11.67
2018-12-06T11:05:29.283Z,11.61
2018-12-06T11:06:29.259Z,11.67
2018-12-06T11:07:29.236Z,11.59
2018-12-06T11:08:29.215Z,11.74
2018-12-06T11:09:29.188Z,11.74
2018-12-06T11:10:29.165Z,11.75
2018-12-06T11:11:29.142Z,11.70
2018-12-06T11:12:29.117Z,11.72
2018-12-06T11:13:29.092Z,11.71
2018-12-06T11:14:29.071Z,11.74
2018-12-06T11:15:29.047Z,11.67
2018-12-06T11:16:29.023Z,11.74
2018-12-06T11:17:28.999Z,11.75
2018-12-06T11:18:28.976Z,11.68
2018-12-06T11:19:28.953Z,11.72
2018-12-06T11:20:28.928Z,11.67
2018-12-06T11:21:28.904Z,11.78
2018-12-06T11:22:28.881Z,11.85
2018-12-06T11:23:28.861Z,11.94
2018-12-06T11:24:28.833Z,11.99
2018-12-06T11:25:28.810Z,11.90
2018-12-06T11:26:28.787Z,12.04
2018-12-06T11:27:28.765Z,12.05
2018-12-06T11:28:28.740Z,12.11
2018-12-06T11:29:28.717Z,12.27
2018-12-06T11:30:28.693Z,12.41
2018-12-06T11:31:28.768Z,12.45
2018-12-06T11:32:28.644Z,12.49
2018-12-06T11:33:28.623Z,12.59
2018-12-06T11:34:28.600Z,12.52
2018-12-06T11:35:28.577Z,12.64
2018-12-06T11:36:28.558Z,12.67
2018-12-06T11:37:28.530Z,12.64
2018-12-06T11:38:28.507Z,12.87
2018-12-06T11:39:28.484Z,12.93
2018-12-06T11:40:28.464Z,12.82
2018-12-06T11:41:28.437Z,12.82
2018-12-06T11:42:30.666Z,12.89
2018-12-06T11:43:28.392Z,12.96
2018-12-06T11:44:28.368Z,13.07
2018-12-06T11:45:28.344Z,13.03
2018-12-06T11:46:28.322Z,13.02
2018-12-06T11:47:28.301Z,13.12
2018-12-06T11:48:30.528Z,13.20
2018-12-06T11:49:28.253Z,13.17
2018-12-06T11:50:28.245Z,13.27
2018-12-06T11:51:28.207Z,13.00
2018-12-06T11:52:28.184Z,12.92
2018-12-06T11:53:28.161Z,12.92
2018-12-06T11:54:28.139Z,13.11
2018-12-06T11:55:28.233Z,13.20
2018-12-06T11:56:28.093Z,13.37
2018-12-06T11:57:28.070Z,13.20
2018-12-06T11:58:28.048Z,13.11
2018-12-06T11:59:28.026Z,13.17
2018-12-06T12:00:28.002Z,13.14
2018-12-06T12:01:27.981Z,13.25
2018-12-06T12:02:27.960Z,13.46
2018-12-06T12:03:27.937Z,13.63
2018-12-06T12:04:27.912Z,13.37
2018-12-06T12:05:30.200Z,13.03
2018-12-06T12:06:27.867Z,13.15
2018-12-06T12:07:27.846Z,13.24
2018-12-06T12:08:27.821Z,13.24
2018-12-06T12:09:27.800Z,13.12
2018-12-06T12:10:27.777Z,13.21
2018-12-06T12:11:28.506Z,13.15
2018-12-06T12:12:27.732Z,13.22
2018-12-06T12:13:27.709Z,13.25
2018-12-06T12:14:27.690Z,13.11
2018-12-06T12:15:27.712Z,13.06
2018-12-06T12:16:27.643Z,12.99
2018-12-06T12:17:27.701Z,13.14
2018-12-06T12:18:27.597Z,13.15
2018-12-06T12:19:27.576Z,13.32
2018-12-06T12:20:27.552Z,13.17
2018-12-06T12:21:27.530Z,13.11
2018-12-06T12:22:28.259Z,13.15
2018-12-06T12:23:27.485Z,13.29
2018-12-06T12:24:27.461Z,13.17
2018-12-06T12:25:27.439Z,13.25
2018-12-06T12:26:27.418Z,13.18
2018-12-06T12:27:27.394Z,13.30
2018-12-06T12:28:27.371Z,13.36
2018-12-06T12:29:27.349Z,13.38
2018-12-06T12:30:27.327Z,12.93
2018-12-06T12:31:27.303Z,12.99
2018-12-06T12:32:27.280Z,13.04
2018-12-06T12:33:27.257Z,13.00
2018-12-06T12:34:27.236Z,13.00
2018-12-06T12:35:27.214Z,13.15
2018-12-06T12:36:27.189Z,13.30
2018-12-06T12:37:27.166Z,13.32
2018-12-06T12:38:30.146Z,13.37
2018-12-06T12:39:27.122Z,13.40
2018-12-06T12:40:27.100Z,13.41
2018-12-06T12:41:27.075Z,13.12
2018-12-06T12:42:27.059Z,13.21
2018-12-06T12:43:27.030Z,13.27
2018-12-06T12:44:27.006Z,13.32
2018-12-06T12:45:26.984Z,13.21
2018-12-06T12:46:26.964Z,13.14
2018-12-06T12:47:26.940Z,13.18
2018-12-06T12:48:26.915Z,12.97
2018-12-06T12:49:26.894Z,13.12
2018-12-06T12:50:26.872Z,13.09
2018-12-06T12:51:26.848Z,13.21
2018-12-06T12:52:26.825Z,13.22
2018-12-06T12:53:26.802Z,13.30
2018-12-06T12:54:26.779Z,13.29
2018-12-06T12:55:26.758Z,13.40
2018-12-06T12:56:26.734Z,13.15
2018-12-06T12:57:26.711Z,13.02
2018-12-06T12:58:26.689Z,13.02
2018-12-06T12:59:26.667Z,13.00
2018-12-06T13:00:26.644Z,12.99
2018-12-06T13:01:26.620Z,13.00